21 Sep 2018 11:34 UTC 2018264+11:34 UTC

Overview Datums Bench Marks Data Query Site Visit Daily QC Messages Attributes

171: National Park Service - Bird Island

27° 29' 4" N   97° 19' 5" W
NPSBI
United States National Park Service United States National Park Service

Station Information

National Park Service - Bird Island
National Park Service - Bird Island
more pictures
 
Station Name:National Park Service - Bird Island
DNR ID:171
Location:27° 29' 4" N, 97° 19' 5" W

Water Level Forecasts

Latest Observations

Series Metric English Marine Observed at
Water Temperature 28.0 °C 82.4 °F 82.4 °F Sep 21 06:12 CDT
00h07m ago
Salinity 35.100 psu 35.100 psu 35.100 psu Sep 21 06:12 CDT
00h07m ago
pH 8.06 pH 8.06 pH 8.06 pH Sep 21 06:12 CDT
00h07m ago
Turbidity 2 ntu 2 ntu 2 ntu Sep 21 06:12 CDT
00h07m ago
Dissolved Oxygen 0.44 mg/L 0.000027 lb/ft3 0.000027 lb/ft3 Sep 21 06:12 CDT
00h07m ago

Maps

National Park Service - Bird Island
All Stations in Area
Entire Network
 

Recent Observations

Date/Time Water
Temp (°F)
Sal (psu) pH (pH) Turb (ntu) DO (lb/ft3)
Sep 21 06:00 CDT 81.5 35.500 8.06 2 0.000027
Sep 21 05:00 CDT 81.9 35.400 8.06 2 0.000026
Sep 21 04:00 CDT 82.4 35.100 8.06 2 0.000026
Sep 21 03:00 CDT 82.2 35.200 8.06 2 0.000026
Sep 21 02:00 CDT 82.4 35.200 8.06 2 0.000026
Sep 21 01:00 CDT 82.8 35.200 8.06 2 0.000025
Sep 21 00:00 CDT 83.1 35.100 8.06 2 0.000026
Sep 20 23:00 CDT 83.7 35.000 8.05 2 0.000026
Sep 20 22:00 CDT 84.0 35.000 8.05 2 0.000026
Sep 20 21:00 CDT 83.1 35.600 8.05 2 0.000026
Sep 20 20:00 CDT 84.6 35.200 8.05 2 0.000026
Sep 20 19:00 CDT 84.7 35.300 8.04 2 0.000026
Sep 20 18:00 CDT 84.4 35.500 8.04 2 0.000026
Sep 20 17:00 CDT 85.3 35.200 8.04 2 0.000026
Sep 20 16:00 CDT 84.9 35.400 8.04 2 0.000026
Sep 20 15:00 CDT 84.6 35.400 8.04 2 0.000026
Sep 20 14:00 CDT 84.0 35.300 8.05 2 0.000026
Sep 20 13:00 CDT 83.8 35.200 8.05 2 0.000027
Sep 20 12:00 CDT 87.4 33.600 8.05 2 0.000024
Sep 20 11:00 CDT 82.6 35.300 8.06 2 0.000026
Sep 20 10:00 CDT 82.6 35.100 8.06 2 0.000026
Sep 20 09:00 CDT 81.5 35.500 8.07 2 0.000026
Sep 20 08:00 CDT 81.5 35.400 8.07 2 0.000026
Sep 20 07:00 CDT 82.2 35.200 8.07 2 0.000026
Sep 20 06:00 CDT 82.2 35.200 8.07 2 0.000026

Historical Data Availability